Terminal Aerodrome Forecast
Issued by NWS Albany, NY

Home | Current Version | Previous Version | Text Only | Print | Product List | Glossary On
Versions: 1 2 3 4 5 6 7 8 9 10 11 12 13 14 15 16 17 18 19 20
000
FTUS41 KALY 211700 RRA
TAFGFL
TAF
KGFL 211747Z 2118/2218 19010KT P6SM SCT050 BKN100
     FM220000 20007KT P6SM VCSH BKN040 BKN080
     FM220400 22006KT P6SM BKN025 BKN050
     FM220700 25007KT 4SM BR BKN015 OVC025
     FM221200 27010KT P6SM SCT025 BKN040
     FM221500 29012G20KT P6SM SCT035 BKN050=

USA.gov is the U.S. government's official web portal to all federal, state and local government web resources and services.